Insider Buying

 
Symbol Name Keyword
Filings for:
Note: This page automatically refreshes every three minutes.
  Symbol Owner Relationship Date Cost # Shares Value($) Total Shares Filing
Y! METC Bauersachs Michael Dale President & CEO Aug 21, 2019 $3.95 31,377 124,096 1,557,970 Aug 22, 2019, 11:41 AM
Y! TPL HORIZON KINETICS ASSET MANAGEMENT LLC 10% Owner Aug 21, 2019 $669.37 49 32,799 300,626 Aug 22, 2019, 11:26 AM
Y! CLF Koci Keith EVP, Chief Financial Officer Aug 22, 2019 $8.08 12,500 100,999 86,849 Aug 22, 2019, 11:24 AM
Y! CUI ONEIL JAMES F Director Aug 21, 2019 $0.79 20,000 15,836 330,331 Aug 22, 2019, 11:23 AM
Y! CNOB Boswell Stephen T. Director Aug 20, 2019 $20.47 10,500 214,956 309,468 Aug 22, 2019, 11:07 AM
Y! CZNC SINGER AARON K Director Aug 21, 2019 $23.88 350 8,358 2,066 Aug 22, 2019, 10:18 AM
Y! JCS Fandrich Mark VP/CFO Aug 20, 2019 $4.26 250 1,064 6,253 Aug 22, 2019, 10:14 AM
Y! CPS Lee Song Min Sr VP & Pres., Asia Pacific Aug 21, 2019 $33.27 3,000 99,810 16,784 Aug 22, 2019, 10:02 AM
Y! FG BAIRD PATRICK Director Aug 14, 2019 $6.99 7,000 48,930 37,816 Aug 22, 2019, 09:58 AM
Y! MTNB Ende Eric J Director Aug 20, 2019 $0.66 20,000 13,200 109,292 Aug 22, 2019, 09:45 AM
Y! TURN Wolfe Daniel B President Aug 21, 2019 $2.19 670 1,467 265,170 Aug 22, 2019, 09:04 AM
Y! RRTS ELLIOTT INTERNATIONAL, L.P. 10% Owner Aug 21, 2019 $8.87 974 8,639 23,184,247 Aug 22, 2019, 08:35 AM
Y! RRTS ELLIOTT INTERNATIONAL, L.P. 10% Owner Aug 20, 2019 $8.55 732 6,259 23,183,273 Aug 22, 2019, 08:35 AM
Y! SCYX Taglietti Marco Chief Executive Officer Aug 20, 2019 $1.11 500 555 516,515 Aug 22, 2019, 08:22 AM
Y! SCYX Taglietti Marco Chief Executive Officer Aug 21, 2019 $1.11 9,500 10,545 526,015 Aug 22, 2019, 08:22 AM
Y! TH Jimmerson Martin L. Director Aug 20, 2019 $6.75 5,000 33,750 5,000 Aug 21, 2019, 07:54 PM
Y! ARCT FARRELL PETER C Director Aug 20, 2019 $10.85 4,432 48,087 42,955 Aug 21, 2019, 07:51 PM
Y! ARCT FARRELL PETER C Director Aug 19, 2019 $11.02 4,681 51,585 38,523 Aug 21, 2019, 07:51 PM
Y! KZR Belsky Marc CFO Aug 20, 2019 $4.42 200 884 1,200 Aug 21, 2019, 07:38 PM
Y! AGS Lopez David Chief Executive Officer Aug 20, 2019 $10.65 2,348 24,998 116,132 Aug 21, 2019, 07:34 PM
Y! KZR Economides Vassiliki SVP, Strategy & External Aff. Aug 20, 2019 $4.41 350 1,544 1,801 Aug 21, 2019, 07:29 PM
Y! MWK Sarig Yaniv Zion See Remarks Aug 21, 2019 $7.19 3,000 21,570 897,551 Aug 21, 2019, 07:28 PM
Y! MWK Sarig Yaniv Zion See Remarks Aug 20, 2019 $6.86 3,000 20,580 894,551 Aug 21, 2019, 07:28 PM
Y! FG Wasgatt Bonnie Chief Op Off of Subsidiary Aug 20, 2019 $7.75 2,400 18,600 2,400 Aug 21, 2019, 07:06 PM
Y! ADES Alta Fundamental Advisers LLC Director Aug 20, 2019 $12.04 15,700 188,951 1,433,470 Aug 21, 2019, 07:01 PM
Y! ADES Alta Fundamental Advisers LLC Director Aug 19, 2019 $11.88 40,543 481,509 1,417,770 Aug 21, 2019, 07:01 PM
Y! RUN TIGER GLOBAL MANAGEMENT LLC 10% Owner Aug 21, 2019 $15.83 250,000 3,958,500 14,208,079 Aug 21, 2019, 06:47 PM
Y! RUN TIGER GLOBAL MANAGEMENT LLC 10% Owner Aug 20, 2019 $15.81 153,219 2,423,158 13,958,079 Aug 21, 2019, 06:47 PM
Y! RUN TIGER GLOBAL MANAGEMENT LLC 10% Owner Aug 19, 2019 $15.71 236,781 3,720,303 13,804,860 Aug 21, 2019, 06:47 PM
Y! PHUN Crowder Randall Chief Operating Officer Aug 21, 2019 $1.30 19,203 24,950 69,838 Aug 21, 2019, 06:41 PM
Y! QRHC Miller Ronald L. Jr. Director Aug 19, 2019 $2.65 300 795 675 Aug 21, 2019, 06:32 PM
Y! CVET Brennan Erin Powers See Remarks Aug 21, 2019 $14.90 1,684 25,092 1,684 Aug 21, 2019, 06:29 PM
Y! CVET Komola Christine T See Remarks Aug 20, 2019 $14.80 5,060 74,888 5,060 Aug 21, 2019, 06:27 PM
Y! BTN Fundamental Global Investors, LLC Director Aug 21, 2019 $3.39 3,408 11,542 1,449,016 Aug 21, 2019, 06:26 PM
Y! BTN Fundamental Global Investors, LLC Director Aug 19, 2019 $3.27 4,513 14,735 1,441,600 Aug 21, 2019, 06:26 PM
Y! BTN Fundamental Global Investors, LLC Director Aug 21, 2019 $3.39 3,407 11,538 1,433,919 Aug 21, 2019, 06:26 PM
Y! BTN Fundamental Global Investors, LLC Director Aug 19, 2019 $3.27 4,514 14,738 1,426,503 Aug 21, 2019, 06:26 PM
Y! BTN Fundamental Global Investors, LLC Director Aug 20, 2019 $3.44 4,008 13,768 1,445,608 Aug 21, 2019, 06:26 PM
Y! BTN Fundamental Global Investors, LLC Director Aug 20, 2019 $3.44 4,009 13,772 1,430,512 Aug 21, 2019, 06:26 PM
Y! KLXE KHOURY AMIN J Chairman, CEO, President Aug 21, 2019 $11.85 100,000 1,185,130 1,264,607 Aug 21, 2019, 06:26 PM
Y! GTES Omaha Aggregator (Cayman) L.P. 10% Owner Aug 21, 2019 $8.37 100,000 837,000 793,708 Aug 21, 2019, 06:23 PM
Y! GTES Omaha Aggregator (Cayman) L.P. 10% Owner Aug 20, 2019 $8.14 100,000 814,000 693,708 Aug 21, 2019, 06:23 PM
Y! GTES Omaha Aggregator (Cayman) L.P. 10% Owner Aug 19, 2019 $8.14 82,500 671,550 593,708 Aug 21, 2019, 06:23 PM
Y! CVET Shaw Benjamin Chief Executive Officer Aug 21, 2019 $13.87 1,800 24,964 1,013,432 Aug 21, 2019, 06:22 PM
Y! GTES Blackstone Group Inc 10% Owner Aug 20, 2019 $8.14 100,000 814,000 693,708 Aug 21, 2019, 06:22 PM
Y! GTES Blackstone Group Inc 10% Owner Aug 19, 2019 $8.14 82,500 671,550 593,708 Aug 21, 2019, 06:22 PM
Y! GTES Blackstone Group Inc 10% Owner Aug 21, 2019 $8.37 100,000 837,000 793,708 Aug 21, 2019, 06:22 PM
Y! MAC O HERN THOMAS E Chief Executive Officer Aug 21, 2019 $28.02 5,000 140,081 78,621 Aug 21, 2019, 06:11 PM
Y! BVSN ESW Capital, LLC 10% Owner Aug 20, 2019 $1.38 210 290 982,365 Aug 21, 2019, 06:09 PM
Y! BVSN ESW Capital, LLC 10% Owner Aug 19, 2019 $1.37 1,025 1,405 982,155 Aug 21, 2019, 06:09 PM
Y! KLXE Hamermesh Richard Director Aug 21, 2019 $11.03 2,000 22,070 2,000 Aug 21, 2019, 05:43 PM
Y! LILA Zinterhofer Eric Louis Director Jun 12, 2019 $18.06 2,080 37,565 277,360 Aug 21, 2019, 05:37 PM
Y! LILA Zinterhofer Eric Louis Director Jun 27, 2019 $17.32 285,000 4,937,226 1,134,630 Aug 21, 2019, 05:37 PM
Y! LILA Zinterhofer Eric Louis Director Jun 05, 2019 $17.38 118,448 2,058,626 118,448 Aug 21, 2019, 05:37 PM
Y! LILA Zinterhofer Eric Louis Director Jun 17, 2019 $18.37 11,872 218,067 374,232 Aug 21, 2019, 05:37 PM
Y! LILA Zinterhofer Eric Louis Director Jun 11, 2019 $17.93 100,000 1,793,260 275,280 Aug 21, 2019, 05:37 PM
Y! LILA Zinterhofer Eric Louis Director Jun 26, 2019 $17.16 425,000 7,294,828 849,630 Aug 21, 2019, 05:37 PM
Y! LILA Zinterhofer Eric Louis Director Jun 14, 2019 $18.42 25,000 460,413 362,360 Aug 21, 2019, 05:37 PM
Y! LILA Zinterhofer Eric Louis Director Jun 10, 2019 $17.96 45,000 807,988 175,280 Aug 21, 2019, 05:37 PM
Y! LILA Zinterhofer Eric Louis Director Jun 19, 2019 $18.45 398 7,343 424,630 Aug 21, 2019, 05:37 PM
Y! LILA Zinterhofer Eric Louis Director Jun 13, 2019 $18.34 60,000 1,100,130 337,360 Aug 21, 2019, 05:37 PM
Y! LILA Zinterhofer Eric Louis Director Jun 06, 2019 $17.53 11,832 207,449 130,280 Aug 21, 2019, 05:37 PM
Y! LILA Zinterhofer Eric Louis Director Jun 18, 2019 $18.47 50,000 923,500 424,232 Aug 21, 2019, 05:37 PM
Y! NWHM HEESCHEN PAUL C Director Aug 20, 2019 $3.85 4,000 15,400 94,326 Aug 21, 2019, 05:24 PM
Y! PHUN MARCUS LORI TAUBER Director Aug 20, 2019 $1.23 1,000 1,230 1,000 Aug 21, 2019, 05:19 PM
Y! UPLC HONEYFIELD DAVID W SVP and CFO Aug 19, 2019 $0.13 300,000 37,860 360,000 Aug 21, 2019, 05:15 PM
Y! UPLC KERR KASON See Remarks Aug 20, 2019 $0.10 100,000 10,290 100,000 Aug 21, 2019, 05:15 PM
Y! WYY Kang Jin CEO Aug 21, 2019 $0.37 100,000 37,480 3,411,385 Aug 21, 2019, 05:12 PM
Y! SBFG MARTIN WILLIAM G Director Aug 15, 2019 $16.08 500 8,040 6,282 Aug 21, 2019, 05:10 PM
Y! OSBC COLLINS GARY S Vice Chairman Aug 21, 2019 $12.48 426 5,317 888 Aug 21, 2019, 05:09 PM
Y! STKL Duchscher Robert Chief Information Officer Aug 19, 2019 $2.23 19,310 43,102 66,245 Aug 21, 2019, 05:07 PM
Y! AQMS Gibson Gayle J Director Aug 21, 2019 $1.75 2,500 4,371 32,546 Aug 21, 2019, 05:02 PM
Y! SKT HENRY DAVID Director Aug 21, 2019 $14.41 10,000 144,090 34,400 Aug 21, 2019, 05:01 PM
Y! CLNY REISS DALE ANNE Director Aug 19, 2019 $22.89 2,000 45,790 3,500 Aug 21, 2019, 05:00 PM
Y! GECC Reed Peter A President and CEO Aug 19, 2019 $8.25 2,219 18,307 82,214 Aug 21, 2019, 04:59 PM
Y! MGPI Griffin Augustus C. President and CEO Aug 20, 2019 $47.75 2,500 119,375 118,630 Aug 21, 2019, 04:56 PM
Y! CRTX EPIQ Capital Group, LLC IA/Managing Member 10% owner Aug 20, 2019 $25.69 2,310 59,344 2,832,506 Aug 21, 2019, 04:54 PM
Y! CRTX EPIQ Capital Group, LLC IA/Managing Member 10% owner Aug 20, 2019 $25.69 600 15,414 2,830,196 Aug 21, 2019, 04:54 PM
Y! CRTX EPIQ Capital Group, LLC IA/Managing Member 10% owner Aug 21, 2019 $24.87 1,635 40,660 2,834,561 Aug 21, 2019, 04:54 PM
Y! CRTX EPIQ Capital Group, LLC IA/Managing Member 10% owner Aug 21, 2019 $24.87 420 10,445 2,832,926 Aug 21, 2019, 04:54 PM
Y! IHTM Hamilton Scott D SVP, CAO, and Asst. Secretary Aug 20, 2019 $13.25 225 2,981 10,363 Aug 21, 2019, 04:54 PM
Y! IHTM Mahoney Sean O Director Aug 19, 2019 $13.18 59,000 777,620 110,315 Aug 21, 2019, 04:51 PM
Y! IHTM Mahoney Sean O Director Aug 20, 2019 $13.28 31,000 411,680 141,315 Aug 21, 2019, 04:51 PM
Y! IHRT PITTMAN ROBERT W CEO and Director Aug 20, 2019 $13.24 20,000 264,800 533,781 Aug 21, 2019, 04:50 PM
Y! TTS JACULLO PETER J III Director Aug 19, 2019 $2.32 25,000 58,000 1,294,424 Aug 21, 2019, 04:47 PM
Y! TTS JACULLO PETER J III Director Aug 20, 2019 $2.30 10,014 23,032 1,304,438 Aug 21, 2019, 04:47 PM
Y! KDP DeNooyer Mary Beth Chief Human Resources Officer Aug 20, 2019 $27.99 6,000 167,960 12,000 Aug 21, 2019, 04:47 PM
Y! EMMA Niihara Yutaka Chairman and CEO Aug 19, 2019 $3.39 6,500 22,056 10,168,626 Aug 21, 2019, 04:43 PM
Y! EMMA Niihara Yutaka Chairman and CEO Aug 21, 2019 $3.37 6,500 21,930 10,181,626 Aug 21, 2019, 04:43 PM
Y! EMMA Niihara Yutaka Chairman and CEO Aug 20, 2019 $3.39 6,500 22,012 10,175,126 Aug 21, 2019, 04:43 PM
Y! SBH Alt Aaron E SVP, CFO & President-SBS Aug 21, 2019 $12.27 1,000 12,268 86,343 Aug 21, 2019, 04:39 PM
Y! SBH RABIN EDWARD W Director Aug 20, 2019 $11.97 2,500 29,932 88,500 Aug 21, 2019, 04:36 PM
Y! SBH RABIN EDWARD W Director Aug 20, 2019 $11.97 500 5,985 17,000 Aug 21, 2019, 04:36 PM
Y! ATEX Owl Creek Asset Management, L.P. 10% Owner Aug 20, 2019 $41.99 17,000 713,830 3,391,312 Aug 21, 2019, 04:36 PM
Y! SBH EISENBERG MARSHALL E Director Aug 20, 2019 $11.89 10,000 118,868 10,000 Aug 21, 2019, 04:35 PM
Y! INMB Moss David J CFO, Treasurer & Secretary Aug 20, 2019 $5.65 3,000 16,950 1,223,417 Aug 21, 2019, 04:34 PM
Y! INMB Tesi Raymond Joseph President & CEO Aug 20, 2019 $5.99 2,000 11,987 1,540,933 Aug 21, 2019, 04:33 PM
Y! NCSM MYERS FRANKLIN Director Aug 21, 2019 $2.14 10,000 21,400 178,791 Aug 21, 2019, 04:27 PM
Y! SGRY COWHEY THOMAS F. Chief Financial Officer Aug 19, 2019 $6.00 25,000 150,000 71,928 Aug 21, 2019, 04:27 PM
Y! SGRY Evans Jason Eric EVP & Chief Operating Officer Aug 20, 2019 $5.95 25,000 148,750 111,655 Aug 21, 2019, 04:26 PM
Next : Last
 
Symbol Name Keyword
Filings for:
Note: This page automatically refreshes every three minutes.
Desktop Version
Symbol Owner Relationship Date Value($)
METC Bauersachs Michael Dale President & CEO Aug 21, 2019 124,096
TPL HORIZON KINETICS ASSET MANAGEMENT LLC 10% Owner Aug 21, 2019 32,799
CLF Koci Keith EVP, Chief Financial Officer Aug 22, 2019 100,999
CUI ONEIL JAMES F Director Aug 21, 2019 15,836
CNOB Boswell Stephen T. Director Aug 20, 2019 214,956
CZNC SINGER AARON K Director Aug 21, 2019 8,358
JCS Fandrich Mark VP/CFO Aug 20, 2019 1,064
CPS Lee Song Min Sr VP & Pres., Asia Pacific Aug 21, 2019 99,810
FG BAIRD PATRICK Director Aug 14, 2019 48,930
MTNB Ende Eric J Director Aug 20, 2019 13,200
TURN Wolfe Daniel B President Aug 21, 2019 1,467
RRTS ELLIOTT INTERNATIONAL, L.P. 10% Owner Aug 21, 2019 8,639
RRTS ELLIOTT INTERNATIONAL, L.P. 10% Owner Aug 20, 2019 6,259
SCYX Taglietti Marco Chief Executive Officer Aug 20, 2019 555
SCYX Taglietti Marco Chief Executive Officer Aug 21, 2019 10,545
TH Jimmerson Martin L. Director Aug 20, 2019 33,750
ARCT FARRELL PETER C Director Aug 20, 2019 48,087
ARCT FARRELL PETER C Director Aug 19, 2019 51,585
KZR Belsky Marc CFO Aug 20, 2019 884
AGS Lopez David Chief Executive Officer Aug 20, 2019 24,998
KZR Economides Vassiliki SVP, Strategy & External Aff. Aug 20, 2019 1,544
MWK Sarig Yaniv Zion See Remarks Aug 21, 2019 21,570
MWK Sarig Yaniv Zion See Remarks Aug 20, 2019 20,580
FG Wasgatt Bonnie Chief Op Off of Subsidiary Aug 20, 2019 18,600
ADES Alta Fundamental Advisers LLC Director Aug 20, 2019 188,951
ADES Alta Fundamental Advisers LLC Director Aug 19, 2019 481,509
RUN TIGER GLOBAL MANAGEMENT LLC 10% Owner Aug 21, 2019 3,958,500
RUN TIGER GLOBAL MANAGEMENT LLC 10% Owner Aug 20, 2019 2,423,158
RUN TIGER GLOBAL MANAGEMENT LLC 10% Owner Aug 19, 2019 3,720,303
PHUN Crowder Randall Chief Operating Officer Aug 21, 2019 24,950
QRHC Miller Ronald L. Jr. Director Aug 19, 2019 795
CVET Brennan Erin Powers See Remarks Aug 21, 2019 25,092
CVET Komola Christine T See Remarks Aug 20, 2019 74,888
BTN Fundamental Global Investors, LLC Director Aug 21, 2019 11,542
BTN Fundamental Global Investors, LLC Director Aug 19, 2019 14,735
BTN Fundamental Global Investors, LLC Director Aug 21, 2019 11,538
BTN Fundamental Global Investors, LLC Director Aug 19, 2019 14,738
BTN Fundamental Global Investors, LLC Director Aug 20, 2019 13,768
BTN Fundamental Global Investors, LLC Director Aug 20, 2019 13,772
KLXE KHOURY AMIN J Chairman, CEO, President Aug 21, 2019 1,185,130
GTES Omaha Aggregator (Cayman) L.P. 10% Owner Aug 21, 2019 837,000
GTES Omaha Aggregator (Cayman) L.P. 10% Owner Aug 20, 2019 814,000
GTES Omaha Aggregator (Cayman) L.P. 10% Owner Aug 19, 2019 671,550
CVET Shaw Benjamin Chief Executive Officer Aug 21, 2019 24,964
GTES Blackstone Group Inc 10% Owner Aug 20, 2019 814,000
GTES Blackstone Group Inc 10% Owner Aug 19, 2019 671,550
GTES Blackstone Group Inc 10% Owner Aug 21, 2019 837,000
MAC O HERN THOMAS E Chief Executive Officer Aug 21, 2019 140,081
BVSN ESW Capital, LLC 10% Owner Aug 20, 2019 290
BVSN ESW Capital, LLC 10% Owner Aug 19, 2019 1,405
KLXE Hamermesh Richard Director Aug 21, 2019 22,070
LILA Zinterhofer Eric Louis Director Jun 12, 2019 37,565
LILA Zinterhofer Eric Louis Director Jun 27, 2019 4,937,226
LILA Zinterhofer Eric Louis Director Jun 05, 2019 2,058,626
LILA Zinterhofer Eric Louis Director Jun 17, 2019 218,067
LILA Zinterhofer Eric Louis Director Jun 11, 2019 1,793,260
LILA Zinterhofer Eric Louis Director Jun 26, 2019 7,294,828
LILA Zinterhofer Eric Louis Director Jun 14, 2019 460,413
LILA Zinterhofer Eric Louis Director Jun 10, 2019 807,988
LILA Zinterhofer Eric Louis Director Jun 19, 2019 7,343
LILA Zinterhofer Eric Louis Director Jun 13, 2019 1,100,130
LILA Zinterhofer Eric Louis Director Jun 06, 2019 207,449
LILA Zinterhofer Eric Louis Director Jun 18, 2019 923,500
NWHM HEESCHEN PAUL C Director Aug 20, 2019 15,400
PHUN MARCUS LORI TAUBER Director Aug 20, 2019 1,230
UPLC HONEYFIELD DAVID W SVP and CFO Aug 19, 2019 37,860
UPLC KERR KASON See Remarks Aug 20, 2019 10,290
WYY Kang Jin CEO Aug 21, 2019 37,480
SBFG MARTIN WILLIAM G Director Aug 15, 2019 8,040
OSBC COLLINS GARY S Vice Chairman Aug 21, 2019 5,317
STKL Duchscher Robert Chief Information Officer Aug 19, 2019 43,102
AQMS Gibson Gayle J Director Aug 21, 2019 4,371
SKT HENRY DAVID Director Aug 21, 2019 144,090
CLNY REISS DALE ANNE Director Aug 19, 2019 45,790
GECC Reed Peter A President and CEO Aug 19, 2019 18,307
MGPI Griffin Augustus C. President and CEO Aug 20, 2019 119,375
CRTX EPIQ Capital Group, LLC IA/Managing Member 10% owner Aug 20, 2019 59,344
CRTX EPIQ Capital Group, LLC IA/Managing Member 10% owner Aug 20, 2019 15,414
CRTX EPIQ Capital Group, LLC IA/Managing Member 10% owner Aug 21, 2019 40,660
CRTX EPIQ Capital Group, LLC IA/Managing Member 10% owner Aug 21, 2019 10,445
IHTM Hamilton Scott D SVP, CAO, and Asst. Secretary Aug 20, 2019 2,981
IHTM Mahoney Sean O Director Aug 19, 2019 777,620
IHTM Mahoney Sean O Director Aug 20, 2019 411,680
IHRT PITTMAN ROBERT W CEO and Director Aug 20, 2019 264,800
TTS JACULLO PETER J III Director Aug 19, 2019 58,000
TTS JACULLO PETER J III Director Aug 20, 2019 23,032
KDP DeNooyer Mary Beth Chief Human Resources Officer Aug 20, 2019 167,960
EMMA Niihara Yutaka Chairman and CEO Aug 19, 2019 22,056
EMMA Niihara Yutaka Chairman and CEO Aug 21, 2019 21,930
EMMA Niihara Yutaka Chairman and CEO Aug 20, 2019 22,012
SBH Alt Aaron E SVP, CFO & President-SBS Aug 21, 2019 12,268
SBH RABIN EDWARD W Director Aug 20, 2019 29,932
SBH RABIN EDWARD W Director Aug 20, 2019 5,985
ATEX Owl Creek Asset Management, L.P. 10% Owner Aug 20, 2019 713,830
SBH EISENBERG MARSHALL E Director Aug 20, 2019 118,868
INMB Moss David J CFO, Treasurer & Secretary Aug 20, 2019 16,950
INMB Tesi Raymond Joseph President & CEO Aug 20, 2019 11,987
NCSM MYERS FRANKLIN Director Aug 21, 2019 21,400
SGRY COWHEY THOMAS F. Chief Financial Officer Aug 19, 2019 150,000
SGRY Evans Jason Eric EVP & Chief Operating Officer Aug 20, 2019 148,750
Next : Last